Yellow Jacket, CO (81335)

1:48 PM MDT on July 30, 2015 (GMT -0600)
East Lewis | | Change Station
CLOSE
Current Station
Personal Weather Station
Location: Lewis, CO
Elevation: 6909 ft
Nearby Weather Stations

Elev 6909 ft 37.52 °N, 108.63 °W | Updated 14 minutes ago

Clear
Clear
91.6 °F
Feels Like 89 °F
N
1.0
Wind Variable Wind from SE
Gusts 3.0 mph

Today
High -- | Low -- °F
--% Chance of Precip.
Yesterday
High -- | Low -- °F
Precip. -- in
6:17 AM 8:25 PM
Waxing Gibbous, 99% visible
Pressure 30.13 in
Visibility 10.0 miles
Clouds Clear
Heat Index 89 °F
Dew Point 51 °F
Humidity 25%
Rainfall 0.00 in
Snow Depth Not available.
UV 13 out of 12
Pollen 4.50 out of 12
Air Quality Not available.
Flu Activity Not available.
METAR KCEZ 301853Z AUTO VRB03KT 10SM CLR 27/08 A3036 RMK AO2 SLP202 T02720083

More Conditions Fewer Conditions

Pressure 30.13 in
Visibility 10.0 miles
Clouds Clear
Heat Index 89 °F
Dew Point 51 °F
Humidity 25%
Rainfall 0.00 in
Snow Depth Not available.
UV 13 out of 12
Pollen 4.50 out of 12
Air Quality Not available.
Flu Activity Not available.
METAR KCEZ 301853Z AUTO VRB03KT 10SM CLR 27/08 A3036 RMK AO2 SLP202 T02720083

More Conditions Fewer Conditions

10-Day Weather Forecast

×

Almanac

Astronomy

Jul. 30, 2015 Rise Set
Actual Time
Civil Twilight
Nautical Twilight
Astronomical Twilight
Moon
Length of Visible Light
Length of Day
Tomorrow will be .
, % of the Moon is Illuminated

Today's Extremes

State Highs State Lows

Community

WunderPhotos

Upload Photos

1,842,486 photos uploaded!

WunderBlogs® & News

Nearby

Air Quality

  Air Quality AQ Index Pollutant
Not available.

Snow Depth

Station Depth Elevation

Earthquake Activity

City Distance Mag. Time & Date
Minimum magnitude displayed is 2.5.

Coastal Water Temperatures

Place Temperature

Stations

Nearby Weather Stations

Station Location Temp. Windchill Dew Point Humidity Wind Precip. Elev Updated Type